createdAt,value
2022-12-31T00:00:25.461Z,1001.69
2022-12-31T00:01:05.982Z,1001.65
2022-12-31T00:01:46.567Z,1001.74
2022-12-31T00:02:27.157Z,1001.68
2022-12-31T00:03:07.634Z,1001.77
2022-12-31T00:03:48.075Z,1001.87
2022-12-31T00:04:28.562Z,1001.71
2022-12-31T00:05:09.090Z,1001.82
2022-12-31T00:05:49.641Z,1001.82
2022-12-31T00:06:30.170Z,1001.75
2022-12-31T00:07:10.767Z,1001.84
2022-12-31T00:09:23.552Z,1001.75
2022-12-31T00:10:04.100Z,1001.91
2022-12-31T00:10:44.644Z,1001.8
2022-12-31T00:11:25.195Z,1001.75
2022-12-31T00:12:05.757Z,1001.94
2022-12-31T00:12:46.269Z,1001.89
2022-12-31T00:13:26.780Z,1001.84
2022-12-31T00:14:07.304Z,1001.8
2022-12-31T00:14:47.843Z,1001.84
2022-12-31T00:15:28.402Z,1001.84
2022-12-31T00:16:12.141Z,1001.85
2022-12-31T00:16:49.536Z,1001.82
2022-12-31T00:17:30.004Z,1001.82
2022-12-31T00:18:10.531Z,1001.84
2022-12-31T00:18:51.073Z,1001.88
2022-12-31T00:19:31.585Z,1001.81
2022-12-31T00:20:12.120Z,1001.91
2022-12-31T00:20:52.645Z,1001.97
2022-12-31T00:21:33.176Z,1001.91
2022-12-31T00:22:13.671Z,1001.78
2022-12-31T00:22:54.182Z,1001.86
2022-12-31T00:23:34.736Z,1001.82
2022-12-31T00:24:15.282Z,1001.96
2022-12-31T00:24:55.802Z,1001.86
2022-12-31T00:25:36.343Z,1001.92
2022-12-31T00:26:17.739Z,1001.98
2022-12-31T00:26:58.299Z,1001.92
2022-12-31T00:27:38.824Z,1002.01
2022-12-31T00:28:19.372Z,1001.87
2022-12-31T00:28:59.893Z,1001.99
2022-12-31T00:29:40.388Z,1002.06
2022-12-31T00:30:20.924Z,1002.01
2022-12-31T00:31:01.551Z,1001.91
2022-12-31T00:31:42.038Z,1002.05
2022-12-31T00:32:22.577Z,1002.11
2022-12-31T00:33:03.145Z,1001.99
2022-12-31T00:33:43.682Z,1001.91
2022-12-31T00:34:24.274Z,1002.07
2022-12-31T00:35:04.749Z,1002.05
2022-12-31T00:35:45.268Z,1002.24
2022-12-31T00:36:25.794Z,1002.04
2022-12-31T00:37:06.313Z,1002.15
2022-12-31T00:37:46.864Z,1002.06
2022-12-31T00:38:27.416Z,1002.05
2022-12-31T00:39:07.989Z,1002.09
2022-12-31T00:39:48.517Z,1002.11
2022-12-31T00:40:30.045Z,1002.01
2022-12-31T00:41:10.564Z,1002.17
2022-12-31T00:41:51.124Z,1002.17
2022-12-31T00:42:31.643Z,1002.1
2022-12-31T00:43:12.208Z,1002.3
2022-12-31T00:43:52.748Z,1002.25
2022-12-31T00:44:33.252Z,1002.25
2022-12-31T00:45:13.758Z,1002.21
2022-12-31T00:45:54.328Z,1002.19
2022-12-31T00:48:22.724Z,1002.25
2022-12-31T00:49:03.240Z,1002.22
2022-12-31T00:49:43.899Z,1002.14
2022-12-31T00:50:24.352Z,1002.27
2022-12-31T00:51:04.922Z,1002.19
2022-12-31T00:51:45.430Z,1002.19
2022-12-31T00:52:25.964Z,1002.28
2022-12-31T00:53:06.495Z,1002.13
2022-12-31T00:53:46.999Z,1002.37
2022-12-31T00:54:27.559Z,1002.22
2022-12-31T00:55:08.096Z,1002.21
2022-12-31T00:55:48.612Z,1002.2
2022-12-31T00:56:29.123Z,1002.25
2022-12-31T00:57:09.650Z,1002.19
2022-12-31T00:57:50.168Z,1002.47
2022-12-31T00:58:30.700Z,1002.36
2022-12-31T00:59:11.228Z,1002.24
2022-12-31T00:59:52.455Z,1002.23
2022-12-31T01:00:32.998Z,1002.37
2022-12-31T01:01:13.718Z,1002.18
2022-12-31T01:01:54.134Z,1002.23
2022-12-31T01:02:34.790Z,1002.32
2022-12-31T01:04:48.222Z,1002.41
2022-12-31T01:05:28.744Z,1002.46
2022-12-31T01:06:10.399Z,1002.48
2022-12-31T01:06:51.726Z,1002.55
2022-12-31T01:09:05.269Z,1002.59
2022-12-31T01:09:45.823Z,1002.61
2022-12-31T01:10:26.357Z,1002.68
2022-12-31T01:11:06.883Z,1002.62
2022-12-31T01:11:47.413Z,1002.63
2022-12-31T01:12:27.965Z,1002.58
2022-12-31T01:13:08.462Z,1002.59
2022-12-31T01:13:49.046Z,1002.49
2022-12-31T01:14:30.175Z,1002.76
2022-12-31T01:15:10.702Z,1002.69
2022-12-31T01:15:51.318Z,1002.64
2022-12-31T01:16:31.832Z,1002.61
2022-12-31T01:17:12.386Z,1002.66
2022-12-31T01:17:52.879Z,1002.63
2022-12-31T01:18:33.426Z,1002.6
2022-12-31T01:19:13.973Z,1002.71
2022-12-31T01:19:54.486Z,1002.67
2022-12-31T01:20:35.041Z,1002.65
2022-12-31T01:21:16.314Z,1002.72
2022-12-31T01:21:56.864Z,1002.71
2022-12-31T01:22:37.335Z,1002.7
2022-12-31T01:23:17.896Z,1002.67
2022-12-31T01:23:58.494Z,1002.67
2022-12-31T01:24:39.001Z,1002.63
2022-12-31T01:25:19.565Z,1002.69
2022-12-31T01:26:00.123Z,1002.55
2022-12-31T01:26:40.661Z,1002.63
2022-12-31T01:27:21.258Z,1002.63
2022-12-31T01:28:01.817Z,1002.64
2022-12-31T01:28:42.364Z,1002.55
2022-12-31T01:29:22.959Z,1002.53
2022-12-31T01:30:03.515Z,1002.63
2022-12-31T01:30:44.160Z,1002.62
2022-12-31T01:31:25.223Z,1002.66
2022-12-31T01:32:05.691Z,1002.64
2022-12-31T01:32:46.231Z,1002.6
2022-12-31T01:33:26.839Z,1002.75
2022-12-31T01:34:07.390Z,1002.61
2022-12-31T01:34:47.946Z,1002.71
2022-12-31T01:35:28.527Z,1002.79
2022-12-31T01:36:09.012Z,1002.78
2022-12-31T01:36:49.597Z,1002.65
2022-12-31T01:39:17.964Z,1002.76
2022-12-31T01:39:59.508Z,1002.79
2022-12-31T01:40:41.632Z,1002.81
2022-12-31T01:41:22.223Z,1002.77
2022-12-31T01:42:03.251Z,1002.86
2022-12-31T01:42:43.833Z,1002.74
2022-12-31T01:43:28.000Z,1002.85
2022-12-31T01:44:09.113Z,1002.83
2022-12-31T01:44:50.500Z,1002.84
2022-12-31T01:47:04.537Z,1002.77
2022-12-31T01:47:46.434Z,1002.69
2022-12-31T01:48:26.987Z,1002.66
2022-12-31T01:49:08.206Z,1002.8
2022-12-31T01:51:27.927Z,1002.69
2022-12-31T01:52:08.501Z,1002.67
2022-12-31T01:52:49.169Z,1002.82
2022-12-31T01:53:29.829Z,1002.7
2022-12-31T01:54:12.173Z,1002.74
2022-12-31T01:54:52.775Z,1002.71
2022-12-31T01:55:33.271Z,1002.74
2022-12-31T01:56:14.773Z,1002.73
2022-12-31T01:56:55.388Z,1002.71
2022-12-31T01:57:35.838Z,1002.69
2022-12-31T01:58:16.483Z,1002.66
2022-12-31T01:58:58.579Z,1002.72
2022-12-31T01:59:40.759Z,1002.69
2022-12-31T02:01:59.125Z,1002.76
2022-12-31T02:02:39.562Z,1002.79
2022-12-31T02:03:19.999Z,1002.85
2022-12-31T02:04:00.498Z,1002.86
2022-12-31T02:04:41.045Z,1002.8
2022-12-31T02:05:21.564Z,1002.81
2022-12-31T02:06:02.077Z,1002.8
2022-12-31T02:06:42.612Z,1002.86
2022-12-31T02:07:23.128Z,1002.89
2022-12-31T02:08:03.694Z,1002.87
2022-12-31T02:08:44.237Z,1002.93
2022-12-31T02:09:24.762Z,1002.86
2022-12-31T02:10:05.316Z,1002.87
2022-12-31T02:10:45.843Z,1002.98
2022-12-31T02:12:44.294Z,1003.03
2022-12-31T02:13:24.853Z,1003
2022-12-31T02:14:05.564Z,1002.98
2022-12-31T02:14:46.110Z,1002.98
2022-12-31T02:15:26.656Z,1002.9
2022-12-31T02:16:07.221Z,1002.92
2022-12-31T02:16:47.714Z,1002.9
2022-12-31T02:17:28.299Z,1003.01
2022-12-31T02:18:08.763Z,1002.92
2022-12-31T02:18:49.462Z,1002.88
2022-12-31T02:19:30.366Z,1002.92
2022-12-31T02:20:11.033Z,1002.81
2022-12-31T02:20:51.528Z,1002.72
2022-12-31T02:21:32.071Z,1002.8
2022-12-31T02:22:12.589Z,1002.86
2022-12-31T02:22:53.088Z,1002.85
2022-12-31T02:23:33.636Z,1002.87
2022-12-31T02:24:14.171Z,1002.84
2022-12-31T02:24:54.769Z,1002.72
2022-12-31T02:25:35.326Z,1002.66
2022-12-31T02:26:15.905Z,1002.63
2022-12-31T02:26:56.440Z,1002.89
2022-12-31T02:27:37.002Z,1002.82
2022-12-31T02:28:17.644Z,1002.76
2022-12-31T02:28:58.184Z,1002.84
2022-12-31T02:31:11.615Z,1002.77
2022-12-31T02:31:52.269Z,1002.79
2022-12-31T02:32:32.840Z,1002.78
2022-12-31T02:33:13.380Z,1002.72
2022-12-31T02:33:53.912Z,1002.86
2022-12-31T02:36:07.005Z,1002.83
2022-12-31T02:36:47.586Z,1002.89
2022-12-31T02:37:28.133Z,1002.88
2022-12-31T02:38:08.660Z,1002.97
2022-12-31T02:38:50.105Z,1002.88
2022-12-31T02:39:30.683Z,1003.03
2022-12-31T02:41:44.317Z,1002.94
2022-12-31T02:42:24.905Z,1002.76
2022-12-31T02:43:05.453Z,1002.87
2022-12-31T02:43:46.025Z,1002.78
2022-12-31T02:44:26.561Z,1002.81
2022-12-31T02:45:07.071Z,1002.83
2022-12-31T02:45:47.617Z,1002.8
2022-12-31T02:46:28.226Z,1002.74
2022-12-31T02:47:08.784Z,1002.69
2022-12-31T02:47:49.377Z,1002.8
2022-12-31T02:48:30.545Z,1002.81
2022-12-31T02:49:11.156Z,1002.72
2022-12-31T02:49:51.647Z,1002.7
2022-12-31T02:50:32.805Z,1002.68
2022-12-31T02:51:13.353Z,1002.69
2022-12-31T02:51:54.012Z,1002.89
2022-12-31T02:52:34.593Z,1002.73
2022-12-31T02:53:15.219Z,1002.69
2022-12-31T02:53:55.770Z,1002.71
2022-12-31T02:57:14.631Z,1002.82
2022-12-31T02:57:56.885Z,1002.88
2022-12-31T02:58:37.940Z,1002.92
2022-12-31T02:59:19.124Z,1002.88
2022-12-31T03:01:32.800Z,1003.01
2022-12-31T03:02:13.332Z,1002.94
2022-12-31T03:02:53.871Z,1002.95
2022-12-31T03:03:34.290Z,1002.99
2022-12-31T03:05:47.355Z,1002.89
2022-12-31T03:06:27.869Z,1002.88
2022-12-31T03:07:08.392Z,1002.9
2022-12-31T03:07:48.931Z,1002.91
2022-12-31T03:10:07.069Z,1002.81
2022-12-31T03:10:47.596Z,1002.82
2022-12-31T03:11:28.127Z,1002.87
2022-12-31T03:12:08.678Z,1002.84
2022-12-31T03:12:49.219Z,1002.83
2022-12-31T03:15:02.281Z,1002.89
2022-12-31T03:15:42.778Z,1002.85
2022-12-31T03:16:23.375Z,1002.92
2022-12-31T03:17:03.835Z,1002.96
2022-12-31T03:17:44.361Z,1002.9
2022-12-31T03:18:25.792Z,1002.92
2022-12-31T03:19:06.281Z,1003.05
2022-12-31T03:19:46.797Z,1003.01
2022-12-31T03:20:27.339Z,1002.97
2022-12-31T03:21:07.903Z,1003.06
2022-12-31T03:21:48.448Z,1003.1
2022-12-31T03:22:29.000Z,1003
2022-12-31T03:23:09.513Z,1002.92
2022-12-31T03:23:49.998Z,1003.04
2022-12-31T03:24:30.563Z,1003.07
2022-12-31T03:25:11.095Z,1003.05
2022-12-31T03:25:51.641Z,1003.06
2022-12-31T03:26:32.225Z,1003.02
2022-12-31T03:27:12.751Z,1003.07
2022-12-31T03:27:53.306Z,1003.12
2022-12-31T03:30:08.140Z,1002.98
2022-12-31T03:30:48.675Z,1002.94
2022-12-31T03:31:29.281Z,1003.03
2022-12-31T03:32:11.318Z,1003.03
2022-12-31T03:34:24.989Z,1002.94
2022-12-31T03:35:05.544Z,1002.93
2022-12-31T03:35:46.037Z,1003.04
2022-12-31T03:36:26.544Z,1002.98
2022-12-31T03:37:07.108Z,1002.91
2022-12-31T03:37:47.681Z,1002.99
2022-12-31T03:38:28.329Z,1002.95
2022-12-31T03:39:08.796Z,1003.07
2022-12-31T03:39:49.340Z,1002.96
2022-12-31T03:40:29.903Z,1002.92
2022-12-31T03:41:10.458Z,1002.92
2022-12-31T03:41:51.017Z,1002.91
2022-12-31T03:42:31.599Z,1002.94
2022-12-31T03:43:12.123Z,1002.9
2022-12-31T03:43:52.653Z,1002.99
2022-12-31T03:44:33.201Z,1002.93
2022-12-31T03:45:13.772Z,1002.96
2022-12-31T03:45:54.316Z,1002.94
2022-12-31T03:47:52.528Z,1003
2022-12-31T03:48:33.077Z,1002.88
2022-12-31T03:49:13.575Z,1002.88
2022-12-31T03:49:54.127Z,1002.99
2022-12-31T03:50:34.686Z,1002.95
2022-12-31T03:51:15.201Z,1002.89
2022-12-31T03:51:55.721Z,1002.98
2022-12-31T03:54:09.690Z,1002.96
2022-12-31T03:54:50.188Z,1002.87
2022-12-31T03:55:30.713Z,1002.99
2022-12-31T03:56:11.206Z,1003.03
2022-12-31T03:56:55.346Z,1002.94
2022-12-31T03:57:32.274Z,1002.97
2022-12-31T03:58:14.018Z,1003.01
2022-12-31T03:58:54.543Z,1002.97
2022-12-31T04:01:07.731Z,1002.94
2022-12-31T04:01:48.343Z,1002.95
2022-12-31T04:02:29.653Z,1002.84
2022-12-31T04:03:09.329Z,1002.86
2022-12-31T04:03:49.843Z,1002.95
2022-12-31T04:04:30.372Z,1002.96
2022-12-31T04:05:10.884Z,1003.02
2022-12-31T04:05:51.406Z,1002.91
2022-12-31T04:06:32.069Z,1002.95
2022-12-31T04:07:12.649Z,1002.95
2022-12-31T04:07:53.169Z,1003.01
2022-12-31T04:08:33.694Z,1003.07
2022-12-31T04:10:46.877Z,1003.09
2022-12-31T04:11:27.431Z,1003.1
2022-12-31T04:12:08.889Z,1003.13
2022-12-31T04:12:49.551Z,1003.08
2022-12-31T04:13:30.289Z,1003.17
2022-12-31T04:14:10.813Z,1003.03
2022-12-31T04:14:52.042Z,1002.97
2022-12-31T04:15:33.406Z,1002.95
2022-12-31T04:16:14.613Z,1003.07
2022-12-31T04:16:55.110Z,1002.99
2022-12-31T04:17:35.641Z,1002.98
2022-12-31T04:18:17.967Z,1003.07
2022-12-31T04:18:58.509Z,1003.01
2022-12-31T04:19:39.034Z,1002.91
2022-12-31T04:20:19.604Z,1002.91
2022-12-31T04:21:00.140Z,1002.9
2022-12-31T04:23:18.433Z,1002.95
2022-12-31T04:23:59.566Z,1002.9
2022-12-31T04:24:40.130Z,1002.92
2022-12-31T04:25:20.635Z,1002.89
2022-12-31T04:26:02.072Z,1002.93
2022-12-31T04:26:42.585Z,1002.89
2022-12-31T04:27:23.102Z,1003.01
2022-12-31T04:28:04.611Z,1002.97
2022-12-31T04:28:45.112Z,1002.99
2022-12-31T04:29:25.630Z,1002.97
2022-12-31T04:30:07.898Z,1002.97
2022-12-31T04:30:48.440Z,1003
2022-12-31T04:31:28.987Z,1003
2022-12-31T04:32:10.315Z,1003.05
2022-12-31T04:32:51.305Z,1003.07
2022-12-31T04:33:31.834Z,1003.07
2022-12-31T04:34:12.330Z,1002.96
2022-12-31T04:34:52.853Z,1003.14
2022-12-31T04:35:33.397Z,1002.98
2022-12-31T04:36:13.948Z,1003.09
2022-12-31T04:38:27.027Z,1003.17
2022-12-31T04:39:07.541Z,1003.01
2022-12-31T04:39:48.095Z,1003.05
2022-12-31T04:40:28.643Z,1003.12
2022-12-31T04:43:06.481Z,1003.06
2022-12-31T04:43:55.026Z,1003.1
2022-12-31T04:44:37.597Z,1003.19
2022-12-31T04:45:24.897Z,1003.04
2022-12-31T04:46:08.873Z,1003.06
2022-12-31T04:46:52.647Z,1003.18
2022-12-31T04:47:35.880Z,1003.18
2022-12-31T04:48:22.053Z,1003.2
2022-12-31T04:49:04.978Z,1003.25
2022-12-31T04:49:51.150Z,1003.24
2022-12-31T04:52:06.302Z,1003.22
2022-12-31T04:52:47.466Z,1003.15
2022-12-31T04:53:28.011Z,1003.27
2022-12-31T04:54:10.005Z,1003.32
2022-12-31T04:54:50.530Z,1003.33
2022-12-31T04:57:03.333Z,1003.21
2022-12-31T04:57:43.882Z,1003.32
2022-12-31T04:58:24.491Z,1003.27
2022-12-31T04:59:05.139Z,1003.35
2022-12-31T04:59:45.619Z,1003.28
2022-12-31T05:00:26.326Z,1003.28
2022-12-31T05:01:07.883Z,1003.2
2022-12-31T05:01:48.414Z,1003.3
2022-12-31T05:02:29.029Z,1003.26
2022-12-31T05:03:09.448Z,1003.28
2022-12-31T05:03:49.939Z,1003.29
2022-12-31T05:05:48.171Z,1003.3
2022-12-31T05:06:28.847Z,1003.28
2022-12-31T05:07:09.418Z,1003.41
2022-12-31T05:07:49.962Z,1003.21
2022-12-31T05:08:30.588Z,1003.14
2022-12-31T05:09:11.236Z,1003.3
2022-12-31T05:09:52.570Z,1003.32
2022-12-31T05:10:33.168Z,1003.28
2022-12-31T05:11:14.299Z,1003.31
2022-12-31T05:13:42.851Z,1003.38
2022-12-31T05:14:23.339Z,1003.55
2022-12-31T05:15:04.611Z,1003.38
2022-12-31T05:15:45.103Z,1003.49
2022-12-31T05:16:26.592Z,1003.43
2022-12-31T05:17:07.026Z,1003.43
2022-12-31T05:17:47.585Z,1003.36
2022-12-31T05:18:28.129Z,1003.44
2022-12-31T05:19:08.681Z,1003.55
2022-12-31T05:19:49.224Z,1003.55
2022-12-31T05:21:47.193Z,1003.42
2022-12-31T05:22:27.751Z,1003.42
2022-12-31T05:23:08.301Z,1003.47
2022-12-31T05:23:48.867Z,1003.4
2022-12-31T05:24:29.395Z,1003.39
2022-12-31T05:25:09.959Z,1003.43
2022-12-31T05:27:23.793Z,1003.43
2022-12-31T05:28:05.111Z,1003.57
2022-12-31T05:28:45.685Z,1003.39
2022-12-31T05:29:26.263Z,1003.46
2022-12-31T05:31:24.338Z,1003.52
2022-12-31T05:32:04.913Z,1003.48
2022-12-31T05:32:45.475Z,1003.48
2022-12-31T05:33:25.964Z,1003.5
2022-12-31T05:34:06.459Z,1003.54
2022-12-31T05:34:46.990Z,1003.56
2022-12-31T05:35:27.561Z,1003.67
2022-12-31T05:36:08.119Z,1003.63
2022-12-31T05:36:48.673Z,1003.57
2022-12-31T05:37:29.168Z,1003.59
2022-12-31T05:38:09.717Z,1003.54
2022-12-31T05:38:50.934Z,1003.61
2022-12-31T05:39:31.457Z,1003.62
2022-12-31T05:41:59.579Z,1003.65
2022-12-31T05:42:40.166Z,1003.65
2022-12-31T05:43:20.715Z,1003.63
2022-12-31T05:44:01.393Z,1003.75
2022-12-31T05:44:41.991Z,1003.75
2022-12-31T05:45:26.934Z,1003.76
2022-12-31T05:46:03.057Z,1003.7
2022-12-31T05:46:43.613Z,1003.8
2022-12-31T05:47:24.060Z,1003.64
2022-12-31T05:48:04.813Z,1003.7
2022-12-31T05:48:45.361Z,1003.7
2022-12-31T05:49:25.813Z,1003.84
2022-12-31T05:50:06.321Z,1003.8
2022-12-31T05:50:47.132Z,1003.82
2022-12-31T05:51:27.704Z,1003.88
2022-12-31T05:52:08.256Z,1003.75
2022-12-31T05:54:36.791Z,1003.83
2022-12-31T05:55:17.344Z,1003.81
2022-12-31T05:55:58.684Z,1003.8
2022-12-31T05:56:39.212Z,1003.74
2022-12-31T05:57:19.761Z,1003.69
2022-12-31T05:58:00.305Z,1003.79
2022-12-31T05:58:40.808Z,1003.78
2022-12-31T05:59:21.358Z,1003.8
2022-12-31T06:00:02.041Z,1003.85
2022-12-31T06:00:42.512Z,1003.75
2022-12-31T06:01:23.265Z,1003.81
2022-12-31T06:02:04.380Z,1003.72
2022-12-31T06:02:44.998Z,1003.83
2022-12-31T06:03:25.540Z,1003.73
2022-12-31T06:04:05.993Z,1003.77
2022-12-31T06:04:46.491Z,1003.78
2022-12-31T06:05:27.056Z,1003.76
2022-12-31T06:06:07.647Z,1003.81
2022-12-31T06:06:48.183Z,1003.73
2022-12-31T06:07:28.742Z,1003.83
2022-12-31T06:09:57.572Z,1003.75
2022-12-31T06:10:38.067Z,1003.78
2022-12-31T06:11:18.607Z,1003.75
2022-12-31T06:11:59.151Z,1003.78
2022-12-31T06:14:13.672Z,1003.62
2022-12-31T06:14:54.249Z,1003.73
2022-12-31T06:15:34.835Z,1003.76
2022-12-31T06:16:15.328Z,1003.79
2022-12-31T06:16:55.850Z,1003.92
2022-12-31T06:17:36.363Z,1003.79
2022-12-31T06:18:17.734Z,1003.77
2022-12-31T06:18:59.099Z,1003.77
2022-12-31T06:19:39.642Z,1003.74
2022-12-31T06:20:20.181Z,1003.76
2022-12-31T06:21:00.693Z,1003.87
2022-12-31T06:21:43.200Z,1004.06
2022-12-31T06:22:23.853Z,1003.77
2022-12-31T06:23:04.359Z,1003.91
2022-12-31T06:23:45.887Z,1003.85
2022-12-31T06:25:59.228Z,1003.82
2022-12-31T06:26:40.003Z,1003.86
2022-12-31T06:27:20.604Z,1003.85
2022-12-31T06:28:01.213Z,1003.86
2022-12-31T06:28:41.751Z,1003.83
2022-12-31T06:29:23.109Z,1003.81
2022-12-31T06:30:03.765Z,1003.82
2022-12-31T06:30:45.684Z,1003.89
2022-12-31T06:31:26.197Z,1003.94
2022-12-31T06:32:07.511Z,1003.86
2022-12-31T06:32:47.905Z,1003.88
2022-12-31T06:33:28.400Z,1003.95
2022-12-31T06:34:09.052Z,1003.88
2022-12-31T06:34:49.503Z,1003.92
2022-12-31T06:35:31.064Z,1003.93
2022-12-31T06:36:11.524Z,1003.91
2022-12-31T06:36:52.174Z,1003.96
2022-12-31T06:37:34.227Z,1003.96
2022-12-31T06:40:03.700Z,1003.99
2022-12-31T06:40:44.171Z,1004.1
2022-12-31T06:41:24.831Z,1003.97
2022-12-31T06:42:05.372Z,1004.11
2022-12-31T06:42:49.854Z,1004.11
2022-12-31T06:44:44.743Z,1004.13
2022-12-31T06:45:25.261Z,1004.05
2022-12-31T06:46:05.940Z,1004.11
2022-12-31T06:46:46.932Z,1004.08
2022-12-31T06:49:00.004Z,1003.99
2022-12-31T06:49:40.544Z,1004.01
2022-12-31T06:50:21.149Z,1003.97
2022-12-31T06:51:01.658Z,1003.96
2022-12-31T06:51:42.209Z,1004.07
2022-12-31T06:52:22.741Z,1004.02
2022-12-31T06:53:03.249Z,1004
2022-12-31T06:53:43.766Z,1003.98
2022-12-31T06:54:24.309Z,1004.02
2022-12-31T06:55:04.861Z,1004.03
2022-12-31T06:55:45.394Z,1003.92
2022-12-31T06:56:33.385Z,1004.01
2022-12-31T06:57:07.213Z,1003.94
2022-12-31T06:59:05.703Z,1003.95
2022-12-31T06:59:46.248Z,1003.96
2022-12-31T07:00:27.373Z,1003.87
2022-12-31T07:01:07.981Z,1003.91
2022-12-31T07:01:48.506Z,1003.95
2022-12-31T07:05:22.431Z,1003.97
2022-12-31T07:06:02.962Z,1004.04
2022-12-31T07:06:43.464Z,1003.93
2022-12-31T07:07:23.980Z,1003.89
2022-12-31T07:08:04.506Z,1004.05
2022-12-31T07:08:45.020Z,1003.92
2022-12-31T07:09:25.564Z,1003.96
2022-12-31T07:10:06.083Z,1003.92
2022-12-31T07:10:46.606Z,1003.97
2022-12-31T07:11:27.117Z,1004
2022-12-31T07:12:07.632Z,1004.06
2022-12-31T07:12:48.181Z,1004.05
2022-12-31T07:13:28.720Z,1003.98
2022-12-31T07:15:26.701Z,1004.13
2022-12-31T07:16:07.247Z,1004.05
2022-12-31T07:16:47.732Z,1003.95
2022-12-31T07:17:28.771Z,1004.05
2022-12-31T07:18:10.186Z,1004.06
2022-12-31T07:18:50.714Z,1003.94
2022-12-31T07:19:31.239Z,1004.07
2022-12-31T07:20:11.766Z,1004.05
2022-12-31T07:20:52.269Z,1004.1
2022-12-31T07:21:32.789Z,1004.13
2022-12-31T07:22:13.373Z,1004.16
2022-12-31T07:22:53.887Z,1004.1
2022-12-31T07:23:34.437Z,1004.13
2022-12-31T07:25:33.049Z,1004.16
2022-12-31T07:26:13.572Z,1004.16
2022-12-31T07:26:56.898Z,1004.09
2022-12-31T07:27:35.475Z,1004.22
2022-12-31T07:28:16.013Z,1004.17
2022-12-31T07:28:56.561Z,1004.26
2022-12-31T07:29:38.061Z,1004.32
2022-12-31T07:30:18.583Z,1004.25
2022-12-31T07:32:16.290Z,1004.41
2022-12-31T07:32:56.826Z,1004.37
2022-12-31T07:33:37.387Z,1004.36
2022-12-31T07:34:17.925Z,1004.5
2022-12-31T07:34:58.460Z,1004.46
2022-12-31T07:35:38.997Z,1004.45
2022-12-31T07:36:19.513Z,1004.39
2022-12-31T07:37:00.676Z,1004.51
2022-12-31T07:37:41.225Z,1004.44
2022-12-31T07:38:21.773Z,1004.44
2022-12-31T07:39:03.143Z,1004.45
2022-12-31T07:39:43.694Z,1004.52
2022-12-31T07:40:24.245Z,1004.42
2022-12-31T07:41:09.245Z,1004.45
2022-12-31T07:41:45.283Z,1004.48
2022-12-31T07:42:25.798Z,1004.49
2022-12-31T07:43:06.333Z,1004.52
2022-12-31T07:43:47.785Z,1004.51
2022-12-31T07:44:28.311Z,1004.54
2022-12-31T07:45:08.823Z,1004.53
2022-12-31T07:45:49.372Z,1004.57
2022-12-31T07:46:29.982Z,1004.58
2022-12-31T07:47:10.429Z,1004.58
2022-12-31T07:47:50.995Z,1004.55
2022-12-31T07:48:31.461Z,1004.6
2022-12-31T07:49:11.989Z,1004.57
2022-12-31T07:49:52.615Z,1004.51
2022-12-31T07:51:50.307Z,1004.64
2022-12-31T07:52:30.854Z,1004.62
2022-12-31T07:53:11.401Z,1004.65
2022-12-31T07:53:51.920Z,1004.76
2022-12-31T07:54:32.439Z,1004.6
2022-12-31T07:55:12.986Z,1004.59
2022-12-31T07:55:53.502Z,1004.6
2022-12-31T07:56:34.024Z,1004.58
2022-12-31T07:57:14.540Z,1004.53
2022-12-31T07:57:55.056Z,1004.59
2022-12-31T07:58:36.979Z,1004.64
2022-12-31T07:59:22.589Z,1004.63
2022-12-31T07:59:58.021Z,1004.54
2022-12-31T08:01:55.850Z,1004.6
2022-12-31T08:02:36.296Z,1004.53
2022-12-31T08:03:16.790Z,1004.6
2022-12-31T08:03:57.281Z,1004.54
2022-12-31T08:04:37.825Z,1004.55
2022-12-31T08:05:18.336Z,1004.64
2022-12-31T08:05:58.874Z,1004.58
2022-12-31T08:06:40.102Z,1004.58
2022-12-31T08:07:20.642Z,1004.69
2022-12-31T08:08:01.150Z,1004.69
2022-12-31T08:08:42.569Z,1004.71
2022-12-31T08:09:23.100Z,1004.8
2022-12-31T08:10:03.634Z,1004.78
2022-12-31T08:10:44.160Z,1004.71
2022-12-31T08:11:24.670Z,1004.78
2022-12-31T08:12:05.198Z,1004.73
2022-12-31T08:12:45.740Z,1004.8
2022-12-31T08:13:26.258Z,1004.77
2022-12-31T08:14:06.771Z,1004.78
2022-12-31T08:14:47.326Z,1004.76
2022-12-31T08:15:30.646Z,1004.84
2022-12-31T08:16:09.776Z,1004.89
2022-12-31T08:16:50.274Z,1004.99
2022-12-31T08:17:31.579Z,1004.86
2022-12-31T08:18:12.125Z,1004.84
2022-12-31T08:18:52.663Z,1004.88
2022-12-31T08:19:33.193Z,1004.93
2022-12-31T08:21:34.783Z,1004.9
2022-12-31T08:22:11.374Z,1004.96
2022-12-31T08:22:51.883Z,1005.03
2022-12-31T08:23:32.419Z,1004.99
2022-12-31T08:24:12.960Z,1005.02
2022-12-31T08:24:53.501Z,1004.9
2022-12-31T08:25:34.020Z,1004.93
2022-12-31T08:26:15.254Z,1005.01
2022-12-31T08:26:55.800Z,1004.94
2022-12-31T08:27:36.322Z,1004.94
2022-12-31T08:28:16.887Z,1005.04
2022-12-31T08:28:57.420Z,1005.01
2022-12-31T08:29:37.925Z,1004.94
2022-12-31T08:30:18.452Z,1004.97
2022-12-31T08:30:58.971Z,1004.99
2022-12-31T08:31:39.573Z,1004.95
2022-12-31T08:32:20.004Z,1004.99
2022-12-31T08:33:00.531Z,1005.06
2022-12-31T08:33:41.106Z,1004.99
2022-12-31T08:35:54.507Z,1005.01
2022-12-31T08:36:34.998Z,1004.93
2022-12-31T08:37:15.611Z,1004.99
2022-12-31T08:37:56.146Z,1004.97
2022-12-31T08:38:36.687Z,1005.04
2022-12-31T08:39:17.222Z,1005.04
2022-12-31T08:39:57.750Z,1004.98
2022-12-31T08:40:38.360Z,1005.01
2022-12-31T08:41:18.910Z,1005.04
2022-12-31T08:41:59.483Z,1004.97
2022-12-31T08:42:40.089Z,1005
2022-12-31T08:43:20.584Z,1005.04
2022-12-31T08:44:01.172Z,1004.99
2022-12-31T08:44:41.710Z,1005.05
2022-12-31T08:45:22.234Z,1004.97
2022-12-31T08:46:02.907Z,1005.01
2022-12-31T08:46:43.369Z,1005.07
2022-12-31T08:47:23.912Z,1005.03
2022-12-31T08:48:04.476Z,1005
2022-12-31T08:48:45.012Z,1004.98
2022-12-31T08:49:25.662Z,1005.02
2022-12-31T08:50:06.196Z,1005.07
2022-12-31T08:50:46.778Z,1005.1
2022-12-31T08:51:27.255Z,1005.1
2022-12-31T08:52:07.778Z,1005.06
2022-12-31T08:52:48.326Z,1005.09
2022-12-31T08:53:28.877Z,1005.09
2022-12-31T08:54:09.465Z,1005.08
2022-12-31T08:54:49.979Z,1005.1
2022-12-31T08:55:30.531Z,1005.01
2022-12-31T08:56:11.047Z,1005.05
2022-12-31T08:56:51.541Z,1005.12
2022-12-31T08:57:32.152Z,1005.1
2022-12-31T08:58:12.867Z,1005.13
2022-12-31T08:58:53.384Z,1005.1
2022-12-31T08:59:33.919Z,1005.19
2022-12-31T09:00:14.494Z,1005.12
2022-12-31T09:00:55.069Z,1005.19
2022-12-31T09:01:35.701Z,1005.19
2022-12-31T09:02:16.158Z,1005.28
2022-12-31T09:02:56.691Z,1005.17
2022-12-31T09:03:37.241Z,1005.22
2022-12-31T09:04:17.831Z,1005.22
2022-12-31T09:04:58.372Z,1005.24
2022-12-31T09:05:38.925Z,1005.3
2022-12-31T09:06:19.550Z,1005.22
2022-12-31T09:07:00.210Z,1005.14
2022-12-31T09:07:40.758Z,1005.26
2022-12-31T09:08:21.289Z,1005.15
2022-12-31T09:09:01.842Z,1005.21
2022-12-31T09:09:42.434Z,1005.22
2022-12-31T09:10:23.018Z,1005.23
2022-12-31T09:11:03.569Z,1005.14
2022-12-31T09:11:44.070Z,1005.11
2022-12-31T09:12:24.644Z,1005.2
2022-12-31T09:13:18.022Z,1005.22
2022-12-31T09:14:15.178Z,1005.16
2022-12-31T09:14:55.769Z,1005.12
2022-12-31T09:15:37.259Z,1005.2
2022-12-31T09:16:17.953Z,1005.04
2022-12-31T09:16:58.487Z,1005.12
2022-12-31T09:19:11.256Z,1005.1
2022-12-31T09:19:51.810Z,1005.04
2022-12-31T09:20:42.612Z,1005.07
2022-12-31T09:21:12.929Z,1005.02
2022-12-31T09:21:53.459Z,1005.11
2022-12-31T09:22:34.089Z,1005.1
2022-12-31T09:23:14.663Z,1005.11
2022-12-31T09:23:55.212Z,1005.05
2022-12-31T09:26:08.541Z,1005.11
2022-12-31T09:26:50.035Z,1005.12
2022-12-31T09:27:30.571Z,1005.14
2022-12-31T09:28:11.127Z,1005.12
2022-12-31T09:28:51.655Z,1005.15
2022-12-31T09:29:32.235Z,1005.21
2022-12-31T09:30:12.685Z,1005.17
2022-12-31T09:30:53.832Z,1005.19
2022-12-31T09:31:34.375Z,1005.19
2022-12-31T09:33:32.057Z,1005.28
2022-12-31T09:34:12.617Z,1005.19
2022-12-31T09:34:53.197Z,1005.29
2022-12-31T09:35:33.711Z,1005.24
2022-12-31T09:36:14.259Z,1005.22
2022-12-31T09:36:54.808Z,1005.26
2022-12-31T09:37:35.356Z,1005.29
2022-12-31T09:38:15.901Z,1005.32